Detall de PIREP

Printer-friendly versionPDF version

[2013/12/02 16:03:00]
Flight IATA:CT3309
Pilot Number:012
Company ICAO:CAT
Aircraft Type:B738/F
PAX:160
Departing Airport: HLLT
Destination Airport: LEZG
Alternate Airport:LEMD
Online: VATSIM
Route:GASRI/M080F370 UR845 NEDOS UV334 LABIP UA411 ANB/M080F360 UM134 IZA UN856 RES UN863 ARBEK UN725 LOBAR
Flight Level:F370
No Slew and time accel
No pause
Crash detect
Detect pilot in Cockpit between each 30 and 45 minutes
16:03 Zero fuel Weight: 120155 Lbs, Fuel Weight: 18866 Lbs
16:03 VATSIM:HLLT 021550Z 31004KT CAVOK 14/04 Q1016
16:03 VATSIM:LEZG 021530Z 31009KT 280V340 CAVOK 09/M01 Q1022
16:03 VOICE CATALONIAN
16:03 Parking Brakes off
16:05 Take-off
16:05 Take off Weight: 138653 Lbs
16:05 Wind: 277º @ 005 Knots Heading: 269º
16:05 POS N32º 39´ 53´´ E013º 08´ 52´´
16:05 Gear Up: 158 Knots
16:05 Flaps:3 at 158 Knots
16:05 Flaps:2 at 184 Knots
16:05 Flaps:1 at 191 Knots
16:06 Flaps:0 at 206 Knots
16:20 Wind:249º@077 Knots Heading: 311º Ground Speed: 436 Knots Altitude 32434 ft
16:23 TOC
16:23 Fuel Weight: 14897 Lb
16:35 Wind:248º@048 Knots Heading: 303º Ground Speed: 430 Knots Altitude 37020 ft
16:50 Wind:266º@018 Knots Heading: 332º Ground Speed: 449 Knots Altitude 36965 ft
17:05 Wind:023º@007 Knots Heading: 292º Ground Speed: 456 Knots Altitude 37982 ft
17:20 Wind:022º@016 Knots Heading: 294º Ground Speed: 456 Knots Altitude 38057 ft
17:35 Wind:063º@041 Knots Heading: 299º Ground Speed: 479 Knots Altitude 38172 ft
17:50 Wind:062º@038 Knots Heading: 358º Ground Speed: 439 Knots Altitude 38195 ft
18:03 TOD
18:03 Fuel Weight: 6324 Lb
18:05 Wind:067º@040 Knots Heading: 295º Ground Speed: 491 Knots Altitude 30875 ft
18:19 Flaps:1 at 199 Knots
18:19 Flaps:2 at 198 Knots
18:20 Wind:040º@013 Knots Heading: 219º Ground Speed: 209 Knots Altitude 7956 ft
18:20 Flaps:3 at 180 Knots
18:20 Flaps:4 at 173 Knots
18:21 Gear Down: 171 Knots
18:21 Flaps:5 at 170 Knots
18:22 Flaps:6 at 150 Knots
18:22 Flaps:7 at 147 Knots
18:23 Flaps:8 at 140 Knots
18:25 TouchDown:Rate -192 ft/min Speed: 119 Knots
18:25 VATSIM:LEZG 021800Z 27006KT CAVOK 05/M00 Q1024
18:25 Land
18:25 Wind:284º@005 Knots
18:25 Heading: 308º
18:25 Flight Duration: 02:20
18:25 Landing Weight: 125532 Lbs
18:25 POS N41º 39´ 42´´ W001º 01´ 22´´
18:28 Parking brakes on
18:28 Block to Block Duration: 02:25
18:28 Final Fuel: 5176 Lbls
18:28 Spent Fuel: 13690 Lbls
18:28 Flight Length: 978 NM
18:28 TOD Land Length: 113 NM

Exportar CSV

Powered by Drupal - Modified by Danger4k